createdAt,value
2022-10-05T00:00:53.733Z,68.90
2022-10-05T00:03:23.024Z,56.08
2022-10-05T00:05:50.529Z,43.17
2022-10-05T00:08:24.050Z,45.08
2022-10-05T00:13:28.297Z,38.55
2022-10-05T00:16:05.268Z,38.67
2022-10-05T00:18:33.104Z,57.80
2022-10-05T00:21:00.346Z,37.95
2022-10-05T00:23:31.221Z,44.38
2022-10-05T00:26:11.682Z,37.70
2022-10-05T00:28:40.527Z,70.10
2022-10-05T00:31:25.885Z,84.20
2022-10-05T00:33:53.253Z,47.78
2022-10-05T00:36:20.212Z,45.63
2022-10-05T00:38:47.476Z,56.40
2022-10-05T00:42:09.951Z,47.80
2022-10-05T00:44:43.530Z,47.67
2022-10-05T00:50:35.939Z,46.10
2022-10-05T00:53:24.396Z,43.08
2022-10-05T00:56:12.524Z,45.08
2022-10-05T00:59:07.434Z,44.22
2022-10-05T01:01:43.613Z,45.05
2022-10-05T01:04:29.530Z,45.33
2022-10-05T01:07:20.935Z,41.13
2022-10-05T01:10:12.336Z,42.17
2022-10-05T01:12:45.451Z,43.30
2022-10-05T01:15:42.266Z,34.78
2022-10-05T01:18:16.878Z,41.60
2022-10-05T01:20:52.988Z,41.03
2022-10-05T01:23:44.606Z,52.17
2022-10-05T01:26:14.591Z,38.45
2022-10-05T01:28:56.425Z,47.20
2022-10-05T01:31:58.589Z,38.33
2022-10-05T01:34:25.784Z,48.95
2022-10-05T01:37:24.252Z,42.20
2022-10-05T01:40:28.283Z,38.35
2022-10-05T01:43:21.568Z,37.92
2022-10-05T01:46:06.781Z,35.80
2022-10-05T01:48:37.860Z,35.75
2022-10-05T01:51:13.241Z,49.75
2022-10-05T01:54:34.280Z,38.72
2022-10-05T01:57:16.517Z,39.75
2022-10-05T01:59:58.479Z,44.85
2022-10-05T02:02:29.207Z,43.58
2022-10-05T02:05:11.598Z,42.70
2022-10-05T02:08:00.717Z,35.50
2022-10-05T02:10:38.631Z,41.33
2022-10-05T02:13:28.247Z,38.50
2022-10-05T02:16:01.018Z,35.95
2022-10-05T02:18:33.003Z,32.30
2022-10-05T02:21:02.060Z,43.20
2022-10-05T02:23:33.825Z,35.30
2022-10-05T02:26:02.177Z,32.95
2022-10-05T02:28:41.803Z,27.85
2022-10-05T02:31:22.756Z,35.33
2022-10-05T02:33:49.882Z,40.55
2022-10-05T02:36:37.175Z,47.72
2022-10-05T02:39:13.027Z,37.05
2022-10-05T02:42:09.141Z,36.42
2022-10-05T02:44:54.710Z,32.45
2022-10-05T02:47:47.859Z,38.67
2022-10-05T02:50:27.306Z,44.63
2022-10-05T02:53:29.901Z,44.17
2022-10-05T02:55:59.708Z,38.10
2022-10-05T02:58:31.139Z,67.85
2022-10-05T03:01:21.253Z,55.22
2022-10-05T03:03:55.953Z,53.88
2022-10-05T03:06:35.399Z,45.30
2022-10-05T03:09:05.962Z,47.65
2022-10-05T03:11:39.218Z,36.33
2022-10-05T03:14:12.665Z,34.03
2022-10-05T03:16:58.265Z,36.30
2022-10-05T03:19:50.152Z,52.63
2022-10-05T03:22:49.838Z,52.03
2022-10-05T03:25:22.753Z,47.03
2022-10-05T03:28:00.521Z,45.13
2022-10-05T03:30:33.051Z,45.55
2022-10-05T03:33:08.711Z,64.10
2022-10-05T03:36:13.579Z,43.03
2022-10-05T03:38:54.167Z,57.80
2022-10-05T03:41:36.942Z,36.75
2022-10-05T03:44:22.687Z,43.47
2022-10-05T03:47:03.270Z,42.15
2022-10-05T03:49:48.793Z,25.95
2022-10-05T03:52:22.349Z,32.13
2022-10-05T03:57:23.555Z,40.45
2022-10-05T04:00:04.707Z,38.70
2022-10-05T04:02:33.699Z,23.15
2022-10-05T04:05:31.134Z,26.70
2022-10-05T04:07:58.083Z,36.05
2022-10-05T04:10:31.687Z,30.88
2022-10-05T04:15:41.906Z,28.02
2022-10-05T04:18:34.432Z,45.17
2022-10-05T04:21:10.903Z,34.85
2022-10-05T04:24:01.146Z,28.27
2022-10-05T04:26:50.072Z,27.95
2022-10-05T04:29:33.048Z,31.50
2022-10-05T04:32:28.135Z,29.90
2022-10-05T04:35:24.100Z,26.08
2022-10-05T04:38:09.755Z,22.17
2022-10-05T04:40:41.964Z,30.77
2022-10-05T04:43:37.005Z,22.73
2022-10-05T04:46:06.897Z,47.92
2022-10-05T04:49:19.164Z,70.72
2022-10-05T04:52:12.313Z,67.70
2022-10-05T04:54:57.198Z,87.05
2022-10-05T04:57:57.051Z,61.80
2022-10-05T05:00:26.170Z,75.55
2022-10-05T05:03:04.178Z,58.13
2022-10-05T05:06:18.007Z,68.82
2022-10-05T05:09:10.430Z,59.15
2022-10-05T05:11:55.551Z,94.55
2022-10-05T05:15:07.438Z,89.88
2022-10-05T05:17:55.091Z,73.30
2022-10-05T05:20:45.974Z,60.22
2022-10-05T05:23:22.647Z,71.22
2022-10-05T05:26:07.201Z,39.53
2022-10-05T05:29:02.888Z,38.28
2022-10-05T05:31:35.906Z,29.00
2022-10-05T05:34:18.314Z,26.38
2022-10-05T05:36:57.854Z,31.15
2022-10-05T05:39:29.820Z,21.30
2022-10-05T05:42:01.472Z,28.38
2022-10-05T05:44:38.734Z,24.48
2022-10-05T05:47:28.639Z,24.90
2022-10-05T05:50:07.393Z,25.60
2022-10-05T05:52:51.958Z,27.30
2022-10-05T05:55:24.352Z,28.90
2022-10-05T05:58:17.598Z,23.20
2022-10-05T06:01:32.861Z,25.15
2022-10-05T06:04:09.556Z,23.20
2022-10-05T06:06:40.539Z,25.13
2022-10-05T06:09:35.486Z,26.90
2022-10-05T06:12:18.929Z,27.58
2022-10-05T06:14:53.315Z,26.52
2022-10-05T06:17:27.344Z,26.55
2022-10-05T06:20:04.920Z,25.52
2022-10-05T06:22:41.141Z,23.15
2022-10-05T06:25:15.213Z,16.85
2022-10-05T06:28:16.397Z,23.75
2022-10-05T06:30:58.817Z,19.10
2022-10-05T06:33:49.532Z,35.55
2022-10-05T06:36:38.937Z,21.92
2022-10-05T06:39:18.015Z,28.27
2022-10-05T06:42:01.940Z,28.05
2022-10-05T06:44:49.560Z,23.98
2022-10-05T06:47:52.099Z,29.58
2022-10-05T06:50:48.165Z,33.42
2022-10-05T06:53:33.181Z,28.70
2022-10-05T06:56:27.593Z,28.27
2022-10-05T06:59:20.633Z,29.63
2022-10-05T07:01:55.266Z,27.73
2022-10-05T07:04:37.187Z,26.13
2022-10-05T07:07:16.840Z,33.45
2022-10-05T07:10:24.354Z,29.60
2022-10-05T07:12:54.398Z,51.28
2022-10-05T07:15:46.651Z,38.17
2022-10-05T07:18:50.885Z,38.20
2022-10-05T07:21:55.289Z,28.92
2022-10-05T07:24:32.831Z,36.58
2022-10-05T07:27:23.011Z,35.65
2022-10-05T07:30:10.507Z,34.25
2022-10-05T07:32:45.547Z,36.70
2022-10-05T07:36:03.482Z,44.60
2022-10-05T07:38:37.736Z,28.77
2022-10-05T07:41:31.220Z,37.72
2022-10-05T07:44:16.374Z,39.60
2022-10-05T07:46:47.347Z,37.85
2022-10-05T07:49:25.875Z,32.10
2022-10-05T07:51:57.503Z,33.53
2022-10-05T07:54:33.684Z,37.80
2022-10-05T07:57:27.383Z,52.78
2022-10-05T08:00:06.514Z,30.90
2022-10-05T08:02:58.541Z,42.92
2022-10-05T08:05:58.959Z,43.65
2022-10-05T08:08:25.940Z,46.33
2022-10-05T08:11:13.964Z,33.08
2022-10-05T08:13:55.520Z,43.03
2022-10-05T08:16:27.349Z,35.65
2022-10-05T08:19:03.376Z,35.80
2022-10-05T08:22:00.706Z,37.78
2022-10-05T08:24:30.649Z,34.28
2022-10-05T08:27:07.077Z,29.65
2022-10-05T08:30:04.023Z,35.60
2022-10-05T08:33:01.969Z,37.35
2022-10-05T08:35:39.550Z,38.13
2022-10-05T08:38:29.149Z,30.35
2022-10-05T08:41:17.110Z,29.30
2022-10-05T08:43:55.297Z,29.77
2022-10-05T08:46:34.443Z,34.33
2022-10-05T08:49:23.225Z,31.20
2022-10-05T08:52:29.323Z,33.80
2022-10-05T08:55:23.259Z,35.30
2022-10-05T08:58:03.682Z,30.77
2022-10-05T09:01:04.955Z,38.63
2022-10-05T09:03:43.876Z,46.53
2022-10-05T09:06:26.882Z,33.13
2022-10-05T09:09:04.911Z,34.08
2022-10-05T09:11:40.901Z,38.78
2022-10-05T09:14:43.184Z,39.38
2022-10-05T09:17:39.330Z,45.63
2022-10-05T09:20:27.599Z,30.23
2022-10-05T09:23:00.273Z,31.55
2022-10-05T09:25:55.138Z,40.47
2022-10-05T09:28:34.716Z,44.13
2022-10-05T09:31:25.578Z,44.53
2022-10-05T09:34:37.285Z,44.78
2022-10-05T09:37:22.778Z,101.00
2022-10-05T09:40:04.610Z,114.28
2022-10-05T09:43:02.247Z,104.88
2022-10-05T09:45:53.994Z,100.30
2022-10-05T09:49:02.607Z,88.65
2022-10-05T09:51:53.718Z,81.05
2022-10-05T09:55:03.152Z,79.72
2022-10-05T09:57:50.861Z,72.15
2022-10-05T10:00:23.458Z,64.50
2022-10-05T10:03:16.522Z,122.50
2022-10-05T10:06:11.501Z,103.93
2022-10-05T10:08:38.475Z,131.45
2022-10-05T10:11:17.559Z,94.05
2022-10-05T10:14:10.872Z,124.93
2022-10-05T10:17:02.121Z,138.10
2022-10-05T10:19:29.215Z,126.35
2022-10-05T10:22:12.370Z,120.97
2022-10-05T10:25:02.078Z,141.13
2022-10-05T10:28:07.375Z,123.43
2022-10-05T10:30:55.014Z,142.93
2022-10-05T10:34:04.114Z,136.68
2022-10-05T10:37:11.346Z,129.15
2022-10-05T10:40:00.254Z,124.00
2022-10-05T10:42:38.262Z,146.85
2022-10-05T10:45:20.092Z,146.98
2022-10-05T10:47:55.766Z,133.23
2022-10-05T10:50:32.949Z,141.40
2022-10-05T10:53:47.245Z,153.85
2022-10-05T10:56:49.492Z,141.13
2022-10-05T10:59:35.556Z,133.38
2022-10-05T11:02:02.570Z,156.15
2022-10-05T11:04:48.366Z,157.65
2022-10-05T11:07:44.336Z,148.25
2022-10-05T11:10:32.568Z,130.77
2022-10-05T11:13:02.151Z,157.70
2022-10-05T11:15:38.191Z,146.93
2022-10-05T11:18:26.679Z,173.68
2022-10-05T11:21:02.557Z,161.88
2022-10-05T11:23:44.203Z,153.13
2022-10-05T11:26:53.463Z,156.73
2022-10-05T11:29:32.699Z,161.10
2022-10-05T11:32:21.365Z,153.57
2022-10-05T11:35:03.581Z,146.50
2022-10-05T11:37:36.593Z,133.15
2022-10-05T11:40:21.987Z,166.38
2022-10-05T11:43:17.141Z,152.45
2022-10-05T11:46:09.011Z,138.90
2022-10-05T11:49:00.780Z,150.55
2022-10-05T11:51:34.625Z,141.20
2022-10-05T11:55:16.190Z,153.20
2022-10-05T11:57:51.095Z,155.45
2022-10-05T12:00:19.822Z,155.15
2022-10-05T12:03:24.304Z,134.25
2022-10-05T12:06:25.880Z,145.90
2022-10-05T12:09:17.703Z,151.27
2022-10-05T12:11:57.910Z,139.77
2022-10-05T12:14:44.991Z,130.50
2022-10-05T12:17:40.999Z,146.30
2022-10-05T12:20:21.299Z,135.48
2022-10-05T12:22:55.859Z,137.18
2022-10-05T12:25:50.276Z,133.82
2022-10-05T12:28:23.217Z,141.95
2022-10-05T12:31:18.627Z,129.85
2022-10-05T12:34:12.193Z,153.60
2022-10-05T12:37:10.200Z,147.80
2022-10-05T12:39:51.073Z,108.13
2022-10-05T12:42:40.808Z,123.25
2022-10-05T12:45:24.396Z,135.85
2022-10-05T12:48:14.623Z,121.10
2022-10-05T12:50:43.555Z,118.35
2022-10-05T12:53:41.374Z,138.85
2022-10-05T12:56:08.421Z,109.82
2022-10-05T12:58:54.040Z,129.65
2022-10-05T13:01:27.046Z,121.07
2022-10-05T13:03:57.009Z,131.48
2022-10-05T13:06:55.763Z,113.85
2022-10-05T13:09:41.577Z,139.93
2022-10-05T13:12:21.096Z,119.15
2022-10-05T13:15:26.794Z,140.32
2022-10-05T13:17:54.069Z,115.78
2022-10-05T13:20:39.445Z,120.95
2022-10-05T13:23:35.119Z,135.18
2022-10-05T13:26:04.294Z,125.68
2022-10-05T13:28:34.356Z,122.70
2022-10-05T13:31:24.037Z,128.57
2022-10-05T13:33:51.043Z,121.28
2022-10-05T13:36:36.360Z,110.07
2022-10-05T13:39:27.712Z,119.05
2022-10-05T13:42:04.117Z,123.13
2022-10-05T13:44:48.666Z,135.75
2022-10-05T13:47:22.441Z,122.60
2022-10-05T13:50:18.516Z,135.32
2022-10-05T13:52:57.047Z,143.13
2022-10-05T13:55:45.405Z,121.43
2022-10-05T13:58:31.521Z,119.85
2022-10-05T14:01:08.150Z,116.75
2022-10-05T14:03:37.416Z,117.47
2022-10-05T14:06:27.859Z,107.18
2022-10-05T14:08:55.371Z,116.47
2022-10-05T14:11:31.662Z,117.13
2022-10-05T14:14:15.172Z,114.10
2022-10-05T14:16:52.279Z,120.20
2022-10-05T14:19:23.929Z,123.13
2022-10-05T14:22:02.703Z,124.05
2022-10-05T14:24:44.105Z,119.63
2022-10-05T14:27:23.707Z,103.43
2022-10-05T14:29:58.314Z,128.75
2022-10-05T14:32:27.609Z,120.90
2022-10-05T14:35:16.156Z,102.03
2022-10-05T14:38:16.459Z,113.70
2022-10-05T14:40:43.568Z,118.78
2022-10-05T14:43:16.362Z,116.80
2022-10-05T14:45:55.474Z,110.05
2022-10-05T14:48:23.176Z,120.95
2022-10-05T14:50:59.625Z,116.20
2022-10-05T14:53:39.221Z,133.70
2022-10-05T14:56:25.002Z,120.32
2022-10-05T14:59:14.406Z,104.05
2022-10-05T15:01:52.198Z,96.43
2022-10-05T15:04:43.192Z,114.63
2022-10-05T15:07:24.793Z,133.93
2022-10-05T15:10:06.517Z,118.78
2022-10-05T15:12:37.847Z,110.40
2022-10-05T15:15:46.322Z,116.00
2022-10-05T15:18:29.608Z,126.13
2022-10-05T15:21:26.679Z,117.05
2022-10-05T15:24:01.115Z,119.88
2022-10-05T15:26:49.524Z,115.00
2022-10-05T15:29:55.830Z,137.50
2022-10-05T15:32:42.455Z,108.07
2022-10-05T15:35:21.629Z,144.48
2022-10-05T15:38:10.684Z,108.22
2022-10-05T15:40:42.874Z,117.68
2022-10-05T15:43:18.316Z,111.50
2022-10-05T15:46:23.619Z,128.82
2022-10-05T15:49:16.631Z,128.45
2022-10-05T15:51:53.386Z,128.03
2022-10-05T15:54:38.916Z,142.13
2022-10-05T15:57:17.388Z,115.32
2022-10-05T16:00:02.479Z,116.65
2022-10-05T16:03:06.246Z,114.65
2022-10-05T16:06:08.889Z,107.85
2022-10-05T16:08:50.850Z,109.63
2022-10-05T16:11:39.430Z,122.43
2022-10-05T16:14:40.388Z,120.90
2022-10-05T16:17:48.966Z,116.55
2022-10-05T16:20:41.360Z,96.60
2022-10-05T16:23:33.511Z,95.20
2022-10-05T16:26:21.938Z,118.93
2022-10-05T16:29:19.534Z,120.05
2022-10-05T16:31:55.583Z,113.57
2022-10-05T16:34:34.874Z,113.35
2022-10-05T16:37:13.084Z,113.03
2022-10-05T16:39:50.722Z,115.65
2022-10-05T16:43:14.528Z,125.50
2022-10-05T16:45:56.652Z,117.38
2022-10-05T16:48:31.592Z,94.35
2022-10-05T16:51:20.135Z,105.90
2022-10-05T16:54:07.288Z,119.03
2022-10-05T16:56:49.442Z,101.18
2022-10-05T16:59:37.975Z,118.68
2022-10-05T17:02:30.381Z,127.05
2022-10-05T17:05:20.320Z,126.35
2022-10-05T17:07:53.530Z,121.45
2022-10-05T17:10:40.557Z,109.38
2022-10-05T17:13:29.216Z,110.00
2022-10-05T17:16:19.426Z,123.40
2022-10-05T17:19:15.500Z,132.32
2022-10-05T17:21:49.930Z,106.07
2022-10-05T17:24:20.110Z,122.25
2022-10-05T17:27:03.166Z,145.77
2022-10-05T17:29:48.313Z,119.20
2022-10-05T17:32:16.022Z,122.00
2022-10-05T17:35:01.008Z,114.00
2022-10-05T17:37:28.233Z,102.15
2022-10-05T17:39:57.223Z,111.75
2022-10-05T17:42:45.275Z,118.10
2022-10-05T17:45:15.009Z,135.10
2022-10-05T17:47:59.132Z,105.35
2022-10-05T17:51:04.381Z,110.53
2022-10-05T17:53:52.501Z,119.20
2022-10-05T17:56:22.007Z,103.65
2022-10-05T17:58:57.634Z,121.20
2022-10-05T18:01:31.736Z,131.07
2022-10-05T18:04:13.781Z,100.35
2022-10-05T18:07:02.037Z,104.03
2022-10-05T18:09:33.737Z,101.93
2022-10-05T18:12:12.804Z,103.90
2022-10-05T18:15:07.423Z,95.53
2022-10-05T18:17:51.682Z,119.63
2022-10-05T18:20:24.444Z,127.22
2022-10-05T18:23:15.007Z,103.70
2022-10-05T18:25:48.883Z,122.53
2022-10-05T18:28:43.473Z,98.60
2022-10-05T18:31:16.614Z,114.15
2022-10-05T18:33:53.056Z,122.90
2022-10-05T18:36:24.416Z,117.50
2022-10-05T18:39:14.332Z,134.98
2022-10-05T18:41:55.436Z,122.95
2022-10-05T18:44:40.949Z,107.72
2022-10-05T18:47:38.908Z,124.15
2022-10-05T18:50:18.070Z,108.80
2022-10-05T18:52:54.886Z,125.05
2022-10-05T18:55:33.809Z,119.03
2022-10-05T18:58:07.412Z,115.10
2022-10-05T19:03:51.741Z,129.25
2022-10-05T19:06:26.780Z,110.57
2022-10-05T19:09:19.147Z,130.45
2022-10-05T19:12:24.304Z,122.07
2022-10-05T19:15:11.264Z,127.20
2022-10-05T19:18:11.646Z,110.40
2022-10-05T19:21:13.353Z,112.55
2022-10-05T19:24:12.597Z,111.25
2022-10-05T19:27:04.292Z,114.15
2022-10-05T19:29:45.515Z,127.93
2022-10-05T19:32:26.583Z,99.78
2022-10-05T19:35:09.348Z,116.00
2022-10-05T19:38:21.551Z,127.95
2022-10-05T19:41:03.600Z,110.75
2022-10-05T19:44:13.731Z,108.63
2022-10-05T19:46:56.175Z,107.03
2022-10-05T19:49:47.802Z,109.50
2022-10-05T19:52:28.676Z,113.32
2022-10-05T19:55:24.307Z,94.82
2022-10-05T19:57:56.433Z,93.38
2022-10-05T20:00:26.519Z,116.20
2022-10-05T20:03:12.407Z,110.75
2022-10-05T20:05:40.708Z,110.57
2022-10-05T20:08:12.669Z,100.45
2022-10-05T20:10:39.734Z,88.10
2022-10-05T20:13:08.932Z,112.57
2022-10-05T20:15:55.545Z,112.55
2022-10-05T20:19:02.851Z,98.32
2022-10-05T20:21:36.568Z,120.85
2022-10-05T20:24:14.606Z,107.93
2022-10-05T20:27:06.947Z,119.20
2022-10-05T20:29:38.987Z,104.47
2022-10-05T20:32:14.387Z,110.50
2022-10-05T20:34:43.877Z,78.90
2022-10-05T20:37:13.470Z,118.97
2022-10-05T20:39:42.170Z,95.07
2022-10-05T20:42:10.569Z,115.50
2022-10-05T20:44:38.437Z,119.72
2022-10-05T20:47:10.107Z,120.72
2022-10-05T20:49:39.011Z,109.07
2022-10-05T20:52:10.097Z,90.38
2022-10-05T20:54:38.606Z,100.80
2022-10-05T20:57:06.783Z,96.60
2022-10-05T20:59:34.844Z,117.05
2022-10-05T21:02:02.116Z,113.22
2022-10-05T21:04:43.122Z,106.30
2022-10-05T21:07:10.605Z,75.93
2022-10-05T21:09:39.540Z,99.00
2022-10-05T21:12:06.858Z,110.07
2022-10-05T21:14:34.678Z,113.50
2022-10-05T21:17:02.398Z,100.65
2022-10-05T21:19:29.936Z,70.60
2022-10-05T21:22:00.011Z,106.20
2022-10-05T21:24:26.983Z,135.93
2022-10-05T21:26:57.046Z,133.45
2022-10-05T21:29:24.136Z,112.55
2022-10-05T21:31:51.462Z,126.20
2022-10-05T21:34:18.586Z,126.20
2022-10-05T21:36:45.607Z,117.65
2022-10-05T21:39:12.582Z,144.23
2022-10-05T21:41:39.944Z,140.05
2022-10-05T21:44:07.248Z,116.57
2022-10-05T21:46:37.461Z,88.40
2022-10-05T21:49:06.752Z,75.43
2022-10-05T21:51:34.459Z,90.78
2022-10-05T21:54:07.574Z,122.60
2022-10-05T21:56:38.206Z,109.13
2022-10-05T21:59:08.058Z,74.28
2022-10-05T22:01:36.249Z,77.88
2022-10-05T22:04:06.702Z,102.25
2022-10-05T22:06:35.582Z,96.97
2022-10-05T22:09:04.025Z,101.47
2022-10-05T22:11:31.898Z,120.60
2022-10-05T22:14:02.992Z,107.03
2022-10-05T22:16:33.096Z,124.63
2022-10-05T22:19:04.685Z,118.38
2022-10-05T22:21:34.318Z,120.80
2022-10-05T22:24:02.963Z,71.78
2022-10-05T22:26:30.555Z,105.90
2022-10-05T22:28:57.963Z,75.32
2022-10-05T22:31:25.156Z,103.97
2022-10-05T22:33:52.493Z,94.80
2022-10-05T22:36:20.033Z,104.18
2022-10-05T22:38:49.764Z,110.07
2022-10-05T22:41:18.593Z,91.63
2022-10-05T22:43:49.011Z,96.47
2022-10-05T22:46:16.198Z,103.40
2022-10-05T22:48:43.473Z,106.38
2022-10-05T22:51:10.742Z,96.35
2022-10-05T22:53:38.209Z,81.43
2022-10-05T22:56:11.443Z,93.47
2022-10-05T22:58:39.311Z,96.70
2022-10-05T23:01:11.868Z,98.60
2022-10-05T23:03:39.296Z,99.97
2022-10-05T23:06:11.936Z,82.60
2022-10-05T23:08:41.971Z,101.78
2022-10-05T23:11:19.469Z,92.57
2022-10-05T23:13:46.559Z,106.00
2022-10-05T23:16:15.266Z,116.13
2022-10-05T23:18:43.436Z,98.85
2022-10-05T23:21:11.656Z,84.70
2022-10-05T23:23:41.428Z,82.03
2022-10-05T23:26:11.264Z,112.35
2022-10-05T23:28:46.759Z,85.60
2022-10-05T23:31:16.766Z,78.70
2022-10-05T23:33:44.416Z,93.80
2022-10-05T23:36:18.123Z,89.47
2022-10-05T23:41:12.956Z,84.57
2022-10-05T23:43:40.492Z,96.72
2022-10-05T23:46:07.926Z,81.65
2022-10-05T23:48:38.258Z,98.53
2022-10-05T23:51:07.286Z,80.32
2022-10-05T23:53:34.688Z,83.72
2022-10-05T23:56:01.732Z,77.20
2022-10-05T23:58:30.210Z,78.10
